sensor_id;sensor_type;location;lat;lon;timestamp;pressure;altitude;pressure_sealevel;temperature;humidity
53246;BME280;39569;51.090;-1.786;2024-03-17T00:01:00;101082.31;;;19.63;54.96
53246;BME280;39569;51.090;-1.786;2024-03-17T00:03:26;101079.31;;;19.52;55.05
53246;BME280;39569;51.090;-1.786;2024-03-17T00:05:56;101079.59;;;19.44;55.71
53246;BME280;39569;51.090;-1.786;2024-03-17T00:08:22;101081.16;;;19.34;55.50
53246;BME280;39569;51.090;-1.786;2024-03-17T00:10:50;101082.97;;;19.15;55.97
53246;BME280;39569;51.090;-1.786;2024-03-17T00:13:16;101075.25;;;19.43;55.21
53246;BME280;39569;51.090;-1.786;2024-03-17T00:15:43;101080.97;;;19.72;54.84
53246;BME280;39569;51.090;-1.786;2024-03-17T00:18:09;101075.16;;;19.68;54.90
53246;BME280;39569;51.090;-1.786;2024-03-17T00:20:36;101073.56;;;19.42;55.56
53246;BME280;39569;51.090;-1.786;2024-03-17T00:23:05;101074.50;;;19.54;55.37
53246;BME280;39569;51.090;-1.786;2024-03-17T00:25:33;101070.22;;;19.65;54.84
53246;BME280;39569;51.090;-1.786;2024-03-17T00:27:59;101058.75;;;19.45;54.94
53246;BME280;39569;51.090;-1.786;2024-03-17T00:30:26;101061.69;;;19.43;55.37
53246;BME280;39569;51.090;-1.786;2024-03-17T00:32:53;101058.09;;;19.25;55.54
53246;BME280;39569;51.090;-1.786;2024-03-17T00:35:19;101055.16;;;19.51;54.90
53246;BME280;39569;51.090;-1.786;2024-03-17T00:37:47;101050.16;;;19.66;54.72
53246;BME280;39569;51.090;-1.786;2024-03-17T00:40:14;101043.47;;;19.32;55.72
53246;BME280;39569;51.090;-1.786;2024-03-17T00:42:41;101039.28;;;19.30;55.35
53246;BME280;39569;51.090;-1.786;2024-03-17T00:45:08;101035.44;;;19.19;55.83
53246;BME280;39569;51.090;-1.786;2024-03-17T00:47:35;101049.22;;;18.93;56.56
53246;BME280;39569;51.090;-1.786;2024-03-17T00:50:01;101034.13;;;19.22;55.81
53246;BME280;39569;51.090;-1.786;2024-03-17T00:52:29;101046.28;;;18.95;56.41
53246;BME280;39569;51.090;-1.786;2024-03-17T00:54:55;101037.47;;;19.24;55.38
53246;BME280;39569;51.090;-1.786;2024-03-17T00:57:23;101037.22;;;19.25;55.86
53246;BME280;39569;51.090;-1.786;2024-03-17T00:59:49;101040.47;;;19.16;55.89
53246;BME280;39569;51.090;-1.786;2024-03-17T01:02:17;101029.97;;;19.44;55.05
53246;BME280;39569;51.090;-1.786;2024-03-17T01:04:44;101033.66;;;19.07;55.86
53246;BME280;39569;51.090;-1.786;2024-03-17T01:07:12;101021.50;;;19.16;55.74
53246;BME280;39569;51.090;-1.786;2024-03-17T01:09:38;101023.91;;;19.24;55.35
53246;BME280;39569;51.090;-1.786;2024-03-17T01:12:05;101025.41;;;19.81;53.74
53246;BME280;39569;51.090;-1.786;2024-03-17T01:14:32;101020.44;;;19.78;54.19
53246;BME280;39569;51.090;-1.786;2024-03-17T01:17:00;101012.09;;;19.43;54.86
53246;BME280;39569;51.090;-1.786;2024-03-17T01:19:26;101013.44;;;19.34;55.12
53246;BME280;39569;51.090;-1.786;2024-03-17T01:21:53;101008.59;;;19.18;55.45
53246;BME280;39569;51.090;-1.786;2024-03-17T01:24:18;101009.28;;;19.49;54.57
53246;BME280;39569;51.090;-1.786;2024-03-17T01:26:45;100999.66;;;19.53;54.39
53246;BME280;39569;51.090;-1.786;2024-03-17T01:29:11;100997.41;;;19.50;54.43
53246;BME280;39569;51.090;-1.786;2024-03-17T01:31:40;100994.75;;;19.80;53.67
53246;BME280;39569;51.090;-1.786;2024-03-17T01:34:05;100989.28;;;19.50;54.25
53246;BME280;39569;51.090;-1.786;2024-03-17T01:36:32;100990.78;;;19.46;54.12
53246;BME280;39569;51.090;-1.786;2024-03-17T01:38:59;100983.50;;;19.22;54.95
53246;BME280;39569;51.090;-1.786;2024-03-17T01:41:27;100981.19;;;19.08;55.45
53246;BME280;39569;51.090;-1.786;2024-03-17T01:43:53;100974.06;;;19.68;53.81
53246;BME280;39569;51.090;-1.786;2024-03-17T01:46:20;100971.78;;;19.28;54.78
53246;BME280;39569;51.090;-1.786;2024-03-17T01:48:47;100970.63;;;19.42;54.69
53246;BME280;39569;51.090;-1.786;2024-03-17T01:51:15;100963.75;;;19.58;54.16
53246;BME280;39569;51.090;-1.786;2024-03-17T01:53:42;100963.66;;;19.10;55.24
53246;BME280;39569;51.090;-1.786;2024-03-17T01:56:10;100956.16;;;19.48;54.38
53246;BME280;39569;51.090;-1.786;2024-03-17T01:58:36;100954.44;;;19.54;53.87
53246;BME280;39569;51.090;-1.786;2024-03-17T02:01:03;100958.06;;;19.05;55.01
53246;BME280;39569;51.090;-1.786;2024-03-17T02:03:29;100952.16;;;19.33;54.65
53246;BME280;39569;51.090;-1.786;2024-03-17T02:05:58;100947.66;;;19.45;54.22
53246;BME280;39569;51.090;-1.786;2024-03-17T02:08:24;100940.66;;;19.19;54.53
53246;BME280;39569;51.090;-1.786;2024-03-17T02:10:52;100937.47;;;19.22;54.56
53246;BME280;39569;51.090;-1.786;2024-03-17T02:13:18;100937.47;;;19.22;54.30
53246;BME280;39569;51.090;-1.786;2024-03-17T02:15:46;100935.50;;;19.29;54.50
53246;BME280;39569;51.090;-1.786;2024-03-17T02:18:11;100925.66;;;19.17;54.77
53246;BME280;39569;51.090;-1.786;2024-03-17T02:20:38;100927.47;;;19.05;54.74
53246;BME280;39569;51.090;-1.786;2024-03-17T02:23:26;100932.03;;;18.86;55.66
53246;BME280;39569;51.090;-1.786;2024-03-17T02:25:53;100927.47;;;19.23;54.63
53246;BME280;39569;51.090;-1.786;2024-03-17T02:28:18;100930.19;;;19.05;54.93
53246;BME280;39569;51.090;-1.786;2024-03-17T02:30:45;100928.50;;;19.04;55.28
53246;BME280;39569;51.090;-1.786;2024-03-17T02:33:11;100922.56;;;18.95;55.31
53246;BME280;39569;51.090;-1.786;2024-03-17T02:35:38;100927.97;;;18.77;55.68
53246;BME280;39569;51.090;-1.786;2024-03-17T02:38:03;100915.34;;;18.89;55.35
53246;BME280;39569;51.090;-1.786;2024-03-17T02:40:32;100910.25;;;19.17;54.79
53246;BME280;39569;51.090;-1.786;2024-03-17T02:42:57;100916.47;;;18.57;56.23
53246;BME280;39569;51.090;-1.786;2024-03-17T02:45:24;100912.97;;;18.99;55.28
53246;BME280;39569;51.090;-1.786;2024-03-17T02:47:51;100916.22;;;18.83;55.44
53246;BME280;39569;51.090;-1.786;2024-03-17T02:50:17;100905.53;;;18.70;55.73
53246;BME280;39569;51.090;-1.786;2024-03-17T02:52:44;100898.78;;;18.79;55.63
53246;BME280;39569;51.090;-1.786;2024-03-17T02:55:10;100891.56;;;18.73;55.71
53246;BME280;39569;51.090;-1.786;2024-03-17T02:57:38;100886.47;;;19.19;54.70
53246;BME280;39569;51.090;-1.786;2024-03-17T03:00:07;100872.63;;;18.91;55.25
53246;BME280;39569;51.090;-1.786;2024-03-17T03:02:38;100881.09;;;19.31;54.26
53246;BME280;39569;51.090;-1.786;2024-03-17T03:05:05;100876.41;;;19.08;54.78
53246;BME280;39569;51.090;-1.786;2024-03-17T03:07:32;100870.06;;;19.14;54.44
53246;BME280;39569;51.090;-1.786;2024-03-17T03:09:59;100867.31;;;19.03;54.87
53246;BME280;39569;51.090;-1.786;2024-03-17T03:12:25;100863.78;;;19.02;55.11
53246;BME280;39569;51.090;-1.786;2024-03-17T03:14:53;100862.56;;;18.80;55.74
53246;BME280;39569;51.090;-1.786;2024-03-17T03:17:20;100860.13;;;18.90;55.16
53246;BME280;39569;51.090;-1.786;2024-03-17T03:19:47;100859.34;;;18.90;55.25
53246;BME280;39569;51.090;-1.786;2024-03-17T03:22:13;100858.78;;;18.81;55.41
53246;BME280;39569;51.090;-1.786;2024-03-17T03:24:40;100850.63;;;18.88;55.42
53246;BME280;39569;51.090;-1.786;2024-03-17T03:27:07;100848.19;;;19.16;54.67
53246;BME280;39569;51.090;-1.786;2024-03-17T03:29:34;100857.16;;;18.98;54.95
53246;BME280;39569;51.090;-1.786;2024-03-17T03:32:04;100848.03;;;19.11;54.84
53246;BME280;39569;51.090;-1.786;2024-03-17T03:34:33;100852.94;;;19.02;54.90
53246;BME280;39569;51.090;-1.786;2024-03-17T03:36:59;100845.84;;;19.19;54.68
53246;BME280;39569;51.090;-1.786;2024-03-17T03:39:26;100836.38;;;18.92;55.25
53246;BME280;39569;51.090;-1.786;2024-03-17T03:41:57;100839.63;;;19.01;55.30
53246;BME280;39569;51.090;-1.786;2024-03-17T03:44:23;100841.22;;;19.08;54.93
53246;BME280;39569;51.090;-1.786;2024-03-17T03:46:50;100836.31;;;18.99;55.01
53246;BME280;39569;51.090;-1.786;2024-03-17T03:49:19;100829.13;;;19.40;54.53
53246;BME280;39569;51.090;-1.786;2024-03-17T03:51:46;100832.41;;;18.95;55.34
53246;BME280;39569;51.090;-1.786;2024-03-17T03:54:13;100825.78;;;18.91;55.80
53246;BME280;39569;51.090;-1.786;2024-03-17T03:56:39;100823.59;;;18.63;56.42
53246;BME280;39569;51.090;-1.786;2024-03-17T03:59:06;100825.56;;;18.74;56.40
53246;BME280;39569;51.090;-1.786;2024-03-17T04:01:33;100818.78;;;19.01;55.58
53246;BME280;39569;51.090;-1.786;2024-03-17T04:04:00;100816.09;;;19.31;54.42
53246;BME280;39569;51.090;-1.786;2024-03-17T04:06:28;100810.72;;;19.13;55.32
53246;BME280;39569;51.090;-1.786;2024-03-17T04:08:54;100811.13;;;18.80;55.62
53246;BME280;39569;51.090;-1.786;2024-03-17T04:11:21;100808.06;;;18.58;56.24
53246;BME280;39569;51.090;-1.786;2024-03-17T04:13:48;100802.31;;;18.85;55.90
53246;BME280;39569;51.090;-1.786;2024-03-17T04:16:14;100803.38;;;18.84;56.07
53246;BME280;39569;51.090;-1.786;2024-03-17T04:18:41;100805.34;;;18.95;55.88
53246;BME280;39569;51.090;-1.786;2024-03-17T04:21:08;100807.88;;;18.72;56.00
53246;BME280;39569;51.090;-1.786;2024-03-17T04:23:36;100800.53;;;18.79;56.57
53246;BME280;39569;51.090;-1.786;2024-03-17T04:26:04;100808.91;;;19.07;55.76
53246;BME280;39569;51.090;-1.786;2024-03-17T04:28:33;100797.41;;;19.11;55.66
53246;BME280;39569;51.090;-1.786;2024-03-17T04:31:03;100800.00;;;19.06;55.94
53246;BME280;39569;51.090;-1.786;2024-03-17T04:33:31;100795.88;;;18.86;56.34
53246;BME280;39569;51.090;-1.786;2024-03-17T04:35:58;100793.69;;;18.94;55.97
53246;BME280;39569;51.090;-1.786;2024-03-17T04:38:25;100796.69;;;18.68;57.19
53246;BME280;39569;51.090;-1.786;2024-03-17T04:40:53;100793.16;;;18.86;56.60
53246;BME280;39569;51.090;-1.786;2024-03-17T04:43:29;100789.25;;;18.45;57.49
53246;BME280;39569;51.090;-1.786;2024-03-17T04:46:01;100785.66;;;18.88;56.63
53246;BME280;39569;51.090;-1.786;2024-03-17T04:48:30;100786.56;;;18.45;57.57
53246;BME280;39569;51.090;-1.786;2024-03-17T04:50:57;100784.91;;;18.81;56.91
53246;BME280;39569;51.090;-1.786;2024-03-17T04:53:24;100782.50;;;18.30;58.17
53246;BME280;39569;51.090;-1.786;2024-03-17T04:55:59;100782.34;;;18.86;56.66
53246;BME280;39569;51.090;-1.786;2024-03-17T04:58:26;100786.19;;;18.17;58.75
53246;BME280;39569;51.090;-1.786;2024-03-17T05:00:53;100778.22;;;18.40;57.95
53246;BME280;39569;51.090;-1.786;2024-03-17T05:03:19;100781.44;;;18.55;57.42
53246;BME280;39569;51.090;-1.786;2024-03-17T05:05:46;100775.22;;;18.30;58.23
53246;BME280;39569;51.090;-1.786;2024-03-17T05:08:13;100769.78;;;18.55;57.51
53246;BME280;39569;51.090;-1.786;2024-03-17T05:10:39;100770.69;;;18.85;56.94
53246;BME280;39569;51.090;-1.786;2024-03-17T05:13:08;100773.84;;;18.82;56.47
53246;BME280;39569;51.090;-1.786;2024-03-17T05:15:36;100771.31;;;18.51;57.77
53246;BME280;39569;51.090;-1.786;2024-03-17T05:18:03;100766.25;;;18.73;57.23
53246;BME280;39569;51.090;-1.786;2024-03-17T05:20:30;100763.56;;;18.54;57.38
53246;BME280;39569;51.090;-1.786;2024-03-17T05:22:57;100769.19;;;18.10;58.82
53246;BME280;39569;51.090;-1.786;2024-03-17T05:25:24;100766.78;;;18.45;57.94
53246;BME280;39569;51.090;-1.786;2024-03-17T05:27:51;100764.41;;;18.30;58.58
53246;BME280;39569;51.090;-1.786;2024-03-17T05:30:19;100766.50;;;18.53;57.73
53246;BME280;39569;51.090;-1.786;2024-03-17T05:32:45;100773.50;;;18.18;58.77
53246;BME280;39569;51.090;-1.786;2024-03-17T05:35:12;100768.25;;;18.41;58.46
53246;BME280;39569;51.090;-1.786;2024-03-17T05:37:39;100755.16;;;18.20;58.94
53246;BME280;39569;51.090;-1.786;2024-03-17T05:40:07;100755.97;;;18.45;58.53
53246;BME280;39569;51.090;-1.786;2024-03-17T05:42:37;100748.94;;;18.19;59.05
53246;BME280;39569;51.090;-1.786;2024-03-17T05:45:04;100757.22;;;18.42;58.70
53246;BME280;39569;51.090;-1.786;2024-03-17T05:47:33;100753.63;;;18.67;58.35
53246;BME280;39569;51.090;-1.786;2024-03-17T05:50:00;100753.53;;;18.55;58.54
53246;BME280;39569;51.090;-1.786;2024-03-17T05:52:26;100748.00;;;18.86;57.66
53246;BME280;39569;51.090;-1.786;2024-03-17T05:54:53;100754.88;;;18.03;59.70
53246;BME280;39569;51.090;-1.786;2024-03-17T05:57:21;100750.41;;;18.76;58.09
53246;BME280;39569;51.090;-1.786;2024-03-17T05:59:48;100749.81;;;18.56;58.43
53246;BME280;39569;51.090;-1.786;2024-03-17T06:02:14;100750.31;;;18.46;58.86
53246;BME280;39569;51.090;-1.786;2024-03-17T06:04:42;100755.78;;;18.40;59.32
53246;BME280;39569;51.090;-1.786;2024-03-17T06:07:09;100749.88;;;18.49;58.83
53246;BME280;39569;51.090;-1.786;2024-03-17T06:09:36;100746.94;;;18.69;58.33
53246;BME280;39569;51.090;-1.786;2024-03-17T06:12:03;100750.56;;;18.20;59.92
53246;BME280;39569;51.090;-1.786;2024-03-17T06:14:30;100739.59;;;18.58;58.64
53246;BME280;39569;51.090;-1.786;2024-03-17T06:16:59;100742.53;;;18.56;58.66
53246;BME280;39569;51.090;-1.786;2024-03-17T06:19:26;100735.97;;;18.46;58.95
53246;BME280;39569;51.090;-1.786;2024-03-17T06:21:54;100735.34;;;18.80;58.27
53246;BME280;39569;51.090;-1.786;2024-03-17T06:24:21;100739.25;;;18.66;58.38
53246;BME280;39569;51.090;-1.786;2024-03-17T06:26:50;100735.34;;;18.80;58.12
53246;BME280;39569;51.090;-1.786;2024-03-17T06:29:17;100733.69;;;18.79;58.03
53246;BME280;39569;51.090;-1.786;2024-03-17T06:31:45;100735.25;;;18.87;57.99
53246;BME280;39569;51.090;-1.786;2024-03-17T06:34:12;100738.09;;;18.62;58.34
53246;BME280;39569;51.090;-1.786;2024-03-17T06:36:41;100732.09;;;18.42;59.45
53246;BME280;39569;51.090;-1.786;2024-03-17T06:39:10;100729.66;;;18.88;58.17
53246;BME280;39569;51.090;-1.786;2024-03-17T06:41:41;100728.63;;;18.53;58.68
53246;BME280;39569;51.090;-1.786;2024-03-17T06:44:08;100719.66;;;18.71;58.40
53246;BME280;39569;51.090;-1.786;2024-03-17T06:46:35;100717.09;;;19.05;57.28
53246;BME280;39569;51.090;-1.786;2024-03-17T06:49:01;100726.53;;;18.85;57.95
53246;BME280;39569;51.090;-1.786;2024-03-17T06:51:28;100715.88;;;18.72;58.71
53246;BME280;39569;51.090;-1.786;2024-03-17T06:53:55;100715.03;;;19.19;57.15
53246;BME280;39569;51.090;-1.786;2024-03-17T06:56:23;100718.22;;;19.16;56.91
53246;BME280;39569;51.090;-1.786;2024-03-17T06:58:50;100722.88;;;19.09;57.51
53246;BME280;39569;51.090;-1.786;2024-03-17T07:01:17;100715.75;;;18.67;58.34
53246;BME280;39569;51.090;-1.786;2024-03-17T07:03:44;100718.66;;;18.83;57.99
53246;BME280;39569;51.090;-1.786;2024-03-17T07:06:11;100715.84;;;18.60;58.61
53246;BME280;39569;51.090;-1.786;2024-03-17T07:08:38;100711.31;;;19.02;57.46
53246;BME280;39569;51.090;-1.786;2024-03-17T07:11:06;100716.28;;;19.05;57.79
53246;BME280;39569;51.090;-1.786;2024-03-17T07:13:35;100715.13;;;19.42;56.66
53246;BME280;39569;51.090;-1.786;2024-03-17T07:16:04;100712.38;;;19.30;56.88
53246;BME280;39569;51.090;-1.786;2024-03-17T07:18:32;100715.34;;;18.81;57.57
53246;BME280;39569;51.090;-1.786;2024-03-17T07:21:00;100706.09;;;18.89;58.29
53246;BME280;39569;51.090;-1.786;2024-03-17T07:23:29;100710.47;;;19.19;57.06
53246;BME280;39569;51.090;-1.786;2024-03-17T07:25:57;100707.03;;;19.12;57.23
53246;BME280;39569;51.090;-1.786;2024-03-17T07:28:24;100711.13;;;19.44;56.62
53246;BME280;39569;51.090;-1.786;2024-03-17T07:30:54;100721.53;;;19.59;56.10
53246;BME280;39569;51.090;-1.786;2024-03-17T07:33:22;100713.66;;;19.28;56.74
53246;BME280;39569;51.090;-1.786;2024-03-17T07:35:50;100716.66;;;19.08;57.58
53246;BME280;39569;51.090;-1.786;2024-03-17T07:38:18;100707.28;;;18.93;58.08
53246;BME280;39569;51.090;-1.786;2024-03-17T07:40:54;100716.38;;;18.98;57.79
53246;BME280;39569;51.090;-1.786;2024-03-17T07:43:21;100716.91;;;19.18;57.31
53246;BME280;39569;51.090;-1.786;2024-03-17T07:45:58;100712.22;;;19.14;57.55
53246;BME280;39569;51.090;-1.786;2024-03-17T07:48:24;100706.44;;;19.51;56.43
53246;BME280;39569;51.090;-1.786;2024-03-17T07:50:54;100716.88;;;19.07;57.91
53246;BME280;39569;51.090;-1.786;2024-03-17T07:53:20;100711.44;;;18.95;57.75
53246;BME280;39569;51.090;-1.786;2024-03-17T07:55:47;100702.16;;;19.32;56.91
53246;BME280;39569;51.090;-1.786;2024-03-17T07:58:14;100708.94;;;19.88;55.65
53246;BME280;39569;51.090;-1.786;2024-03-17T08:00:40;100707.03;;;19.65;56.15
53246;BME280;39569;51.090;-1.786;2024-03-17T08:03:08;100703.38;;;19.83;55.88
53246;BME280;39569;51.090;-1.786;2024-03-17T08:05:35;100707.41;;;20.15;54.82
53246;BME280;39569;51.090;-1.786;2024-03-17T08:08:02;100705.88;;;19.73;55.72
53246;BME280;39569;51.090;-1.786;2024-03-17T08:10:29;100699.97;;;19.76;56.02
53246;BME280;39569;51.090;-1.786;2024-03-17T08:12:55;100712.47;;;19.77;55.74
53246;BME280;39569;51.090;-1.786;2024-03-17T08:15:22;100698.22;;;20.04;55.66
53246;BME280;39569;51.090;-1.786;2024-03-17T08:17:49;100701.16;;;20.14;55.33
53246;BME280;39569;51.090;-1.786;2024-03-17T08:20:17;100700.00;;;19.99;56.08
53246;BME280;39569;51.090;-1.786;2024-03-17T08:22:44;100694.56;;;19.99;55.87
53246;BME280;39569;51.090;-1.786;2024-03-17T08:25:11;100691.84;;;19.99;55.75
53246;BME280;39569;51.090;-1.786;2024-03-17T08:27:37;100678.84;;;20.12;55.96
53246;BME280;39569;51.090;-1.786;2024-03-17T08:30:05;100677.59;;;19.69;57.00
53246;BME280;39569;51.090;-1.786;2024-03-17T08:32:32;100678.19;;;20.28;55.49
53246;BME280;39569;51.090;-1.786;2024-03-17T08:34:59;100686.22;;;20.63;54.09
53246;BME280;39569;51.090;-1.786;2024-03-17T08:37:27;100685.44;;;20.79;54.47
53246;BME280;39569;51.090;-1.786;2024-03-17T08:39:54;100687.91;;;20.52;54.89
53246;BME280;39569;51.090;-1.786;2024-03-17T08:42:21;100693.94;;;20.54;54.68
53246;BME280;39569;51.090;-1.786;2024-03-17T08:44:47;100696.00;;;21.04;53.63
53246;BME280;39569;51.090;-1.786;2024-03-17T08:47:14;100701.56;;;21.25;53.08
53246;BME280;39569;51.090;-1.786;2024-03-17T08:49:41;100696.69;;;20.08;55.42
53246;BME280;39569;51.090;-1.786;2024-03-17T08:52:07;100703.88;;;19.80;56.78
53246;BME280;39569;51.090;-1.786;2024-03-17T08:54:35;100704.13;;;20.24;55.45
53246;BME280;39569;51.090;-1.786;2024-03-17T08:57:02;100698.22;;;19.81;56.92
53246;BME280;39569;51.090;-1.786;2024-03-17T08:59:29;100701.88;;;18.93;58.39
53246;BME280;39569;51.090;-1.786;2024-03-17T09:01:56;100700.09;;;20.15;56.08
53246;BME280;39569;51.090;-1.786;2024-03-17T09:04:23;100706.91;;;19.72;56.65
53246;BME280;39569;51.090;-1.786;2024-03-17T09:06:49;100715.19;;;20.11;56.09
53246;BME280;39569;51.090;-1.786;2024-03-17T09:09:19;100698.66;;;19.67;57.21
53246;BME280;39569;51.090;-1.786;2024-03-17T09:11:47;100702.88;;;19.39;57.64
53246;BME280;39569;51.090;-1.786;2024-03-17T09:14:14;100705.72;;;19.15;59.16
53246;BME280;39569;51.090;-1.786;2024-03-17T09:16:41;100705.47;;;19.34;58.58
53246;BME280;39569;51.090;-1.786;2024-03-17T09:19:08;100704.88;;;18.85;59.63
53246;BME280;39569;51.090;-1.786;2024-03-17T09:21:35;100713.28;;;19.54;58.32
53246;BME280;39569;51.090;-1.786;2024-03-17T09:24:04;100717.28;;;19.63;58.51
53246;BME280;39569;51.090;-1.786;2024-03-17T09:26:32;100718.91;;;19.41;58.90
53246;BME280;39569;51.090;-1.786;2024-03-17T09:29:00;100726.09;;;18.88;60.03
53246;BME280;39569;51.090;-1.786;2024-03-17T09:31:27;100724.19;;;19.06;59.88
53246;BME280;39569;51.090;-1.786;2024-03-17T09:33:56;100717.38;;;19.45;58.69
53246;BME280;39569;51.090;-1.786;2024-03-17T09:36:22;100721.72;;;19.05;59.64
53246;BME280;39569;51.090;-1.786;2024-03-17T09:38:49;100704.22;;;19.72;57.75
53246;BME280;39569;51.090;-1.786;2024-03-17T09:41:20;100715.75;;;20.60;55.63
53246;BME280;39569;51.090;-1.786;2024-03-17T09:43:48;100715.50;;;20.61;55.67
53246;BME280;39569;51.090;-1.786;2024-03-17T09:46:17;100710.50;;;19.95;57.25
53246;BME280;39569;51.090;-1.786;2024-03-17T09:48:44;100714.78;;;20.94;55.12
53246;BME280;39569;51.090;-1.786;2024-03-17T09:51:18;100716.69;;;20.93;55.01
53246;BME280;39569;51.090;-1.786;2024-03-17T09:53:46;100720.75;;;20.79;54.96
53246;BME280;39569;51.090;-1.786;2024-03-17T09:56:13;100718.22;;;20.61;55.34
53246;BME280;39569;51.090;-1.786;2024-03-17T09:58:41;100715.03;;;21.04;54.50
53246;BME280;39569;51.090;-1.786;2024-03-17T10:01:08;100711.44;;;20.01;56.67
53246;BME280;39569;51.090;-1.786;2024-03-17T10:03:44;100714.50;;;20.27;57.08
53246;BME280;39569;51.090;-1.786;2024-03-17T10:06:12;100722.38;;;19.94;57.70
53246;BME280;39569;51.090;-1.786;2024-03-17T10:08:43;100720.25;;;19.85;58.43
53246;BME280;39569;51.090;-1.786;2024-03-17T10:11:10;100728.13;;;20.67;56.48
53246;BME280;39569;51.090;-1.786;2024-03-17T10:13:38;100729.03;;;20.73;55.67
53246;BME280;39569;51.090;-1.786;2024-03-17T10:16:05;100721.91;;;19.74;57.69
53246;BME280;39569;51.090;-1.786;2024-03-17T10:18:32;100727.09;;;20.57;56.99
53246;BME280;39569;51.090;-1.786;2024-03-17T10:21:00;100720.34;;;20.47;55.76
53246;BME280;39569;51.090;-1.786;2024-03-17T10:23:27;100724.56;;;20.67;55.71
53246;BME280;39569;51.090;-1.786;2024-03-17T10:25:54;100720.38;;;20.13;56.84
53246;BME280;39569;51.090;-1.786;2024-03-17T10:28:21;100720.94;;;21.01;54.86
53246;BME280;39569;51.090;-1.786;2024-03-17T10:30:57;100715.53;;;20.89;55.01
53246;BME280;39569;51.090;-1.786;2024-03-17T10:33:25;100723.53;;;20.56;54.60
53246;BME280;39569;51.090;-1.786;2024-03-17T10:35:59;100724.00;;;21.32;54.54
53246;BME280;39569;51.090;-1.786;2024-03-17T10:38:27;100713.56;;;21.13;54.09
53246;BME280;39569;51.090;-1.786;2024-03-17T10:40:53;100725.25;;;21.41;53.52
53246;BME280;39569;51.090;-1.786;2024-03-17T10:43:20;100713.53;;;21.58;53.37
53246;BME280;39569;51.090;-1.786;2024-03-17T10:45:51;100705.41;;;22.29;51.53
53246;BME280;39569;51.090;-1.786;2024-03-17T10:48:20;100719.41;;;20.93;54.85
53246;BME280;39569;51.090;-1.786;2024-03-17T10:50:48;100716.56;;;22.66;51.38
53246;BME280;39569;51.090;-1.786;2024-03-17T10:53:20;100712.69;;;22.62;50.47
53246;BME280;39569;51.090;-1.786;2024-03-17T10:55:56;100708.13;;;21.91;52.94
53246;BME280;39569;51.090;-1.786;2024-03-17T10:58:33;100717.66;;;21.43;54.06
53246;BME280;39569;51.090;-1.786;2024-03-17T11:01:01;100717.69;;;20.76;54.84
53246;BME280;39569;51.090;-1.786;2024-03-17T11:03:31;100721.81;;;21.79;52.97
53246;BME280;39569;51.090;-1.786;2024-03-17T11:05:59;100714.22;;;21.98;52.73
53246;BME280;39569;51.090;-1.786;2024-03-17T11:08:27;100710.34;;;22.70;50.14
53246;BME280;39569;51.090;-1.786;2024-03-17T11:10:54;100711.81;;;22.01;51.42
53246;BME280;39569;51.090;-1.786;2024-03-17T11:13:24;100709.56;;;22.15;51.65
53246;BME280;39569;51.090;-1.786;2024-03-17T11:15:51;100709.59;;;21.48;52.61
53246;BME280;39569;51.090;-1.786;2024-03-17T11:18:44;100707.69;;;22.37;50.30
53246;BME280;39569;51.090;-1.786;2024-03-17T11:21:20;100718.66;;;21.71;52.18
53246;BME280;39569;51.090;-1.786;2024-03-17T11:24:00;100708.84;;;21.53;52.85
53246;BME280;39569;51.090;-1.786;2024-03-17T11:26:28;100722.03;;;21.16;53.68
53246;BME280;39569;51.090;-1.786;2024-03-17T11:28:55;100721.56;;;20.40;55.28
53246;BME280;39569;51.090;-1.786;2024-03-17T11:31:44;100716.03;;;21.92;52.12
53246;BME280;39569;51.090;-1.786;2024-03-17T11:34:35;100709.22;;;22.28;50.87
53246;BME280;39569;51.090;-1.786;2024-03-17T11:37:03;100718.53;;;21.16;52.92
53246;BME280;39569;51.090;-1.786;2024-03-17T11:39:51;100705.28;;;21.81;52.29
53246;BME280;39569;51.090;-1.786;2024-03-17T11:42:21;100712.50;;;21.92;51.82
53246;BME280;39569;51.090;-1.786;2024-03-17T11:45:00;100709.41;;;21.72;52.46
53246;BME280;39569;51.090;-1.786;2024-03-17T11:47:35;100717.25;;;21.68;52.54
53246;BME280;39569;51.090;-1.786;2024-03-17T11:50:02;100710.59;;;21.92;50.92
53246;BME280;39569;51.090;-1.786;2024-03-17T11:52:31;100718.13;;;22.62;50.69
53246;BME280;39569;51.090;-1.786;2024-03-17T11:54:58;100718.66;;;21.54;52.81
53246;BME280;39569;51.090;-1.786;2024-03-17T11:57:26;100718.78;;;20.75;54.18
53246;BME280;39569;51.090;-1.786;2024-03-17T11:59:52;100716.19;;;20.96;53.46
53246;BME280;39569;51.090;-1.786;2024-03-17T12:02:20;100711.75;;;21.96;50.74
53246;BME280;39569;51.090;-1.786;2024-03-17T12:04:47;100687.06;;;26.84;40.86
53246;BME280;39569;51.090;-1.786;2024-03-17T12:07:18;100688.19;;;29.07;36.15
53246;BME280;39569;51.090;-1.786;2024-03-17T12:09:44;100685.22;;;29.91;35.25
53246;BME280;39569;51.090;-1.786;2024-03-17T12:12:17;100690.09;;;29.62;34.34
53246;BME280;39569;51.090;-1.786;2024-03-17T12:14:43;100690.03;;;29.67;33.65
53246;BME280;39569;51.090;-1.786;2024-03-17T12:17:12;100687.63;;;26.81;39.02
53246;BME280;39569;51.090;-1.786;2024-03-17T12:19:39;100694.84;;;23.24;44.24
53246;BME280;39569;51.090;-1.786;2024-03-17T12:22:08;100686.00;;;24.54;43.26
53246;BME280;39569;51.090;-1.786;2024-03-17T12:24:35;100681.34;;;27.24;38.28
53246;BME280;39569;51.090;-1.786;2024-03-17T12:27:05;100665.34;;;30.62;32.40
53246;BME280;39569;51.090;-1.786;2024-03-17T12:29:34;100677.13;;;27.42;37.56
53246;BME280;39569;51.090;-1.786;2024-03-17T12:32:13;100668.34;;;28.26;37.13
53246;BME280;39569;51.090;-1.786;2024-03-17T12:34:40;100669.97;;;28.03;36.32
53246;BME280;39569;51.090;-1.786;2024-03-17T12:37:07;100669.91;;;26.58;37.95
53246;BME280;39569;51.090;-1.786;2024-03-17T12:39:34;100672.50;;;29.45;33.83
53246;BME280;39569;51.090;-1.786;2024-03-17T12:42:05;100671.72;;;29.26;33.63
53246;BME280;39569;51.090;-1.786;2024-03-17T12:44:34;100668.34;;;26.96;36.92